Time;durP1;ratioP1;P1;durP2;ratioP2;P2;SDS_P1;SDS_P2;PMS_P1;PMS_P2;Temp;Humidity;BMP_temperature;BMP_pressure;BME280_temperature;BME280_humidity;BME280_pressure;Samples;Min_cycle;Max_cycle;Signal;HPM_P1;HPM_P2
2022/05/05 00:01:28;;;;;;;12.17;5.70;;;;;;;18.90;41.29;102088.50;5031237;28;20550;-71
2022/05/05 00:03:54;;;;;;;11.43;5.60;;;;;;;19.04;41.03;102080.25;5030383;28;20022;-71
2022/05/05 00:06:19;;;;;;;12.47;5.57;;;;;;;18.97;41.22;102089.22;5030779;28;20080;-71
2022/05/05 00:08:45;;;;;;;13.30;5.97;;;;;;;19.10;41.41;102085.38;5030715;28;20022;-71
2022/05/05 00:16:41;;;;;;;16.67;5.33;;;;;;;18.69;42.25;102089.88;5033248;28;20516;-71
2022/05/05 00:19:06;;;;;;;12.13;5.50;;;;;;;19.01;41.85;102090.88;5030636;28;20489;-71
2022/05/05 00:21:31;;;;;;;12.17;6.20;;;;;;;18.85;41.84;102090.41;5015018;28;20044;-71
2022/05/05 00:23:57;;;;;;;16.90;6.70;;;;;;;18.92;41.64;102093.78;5029464;28;20029;-70
2022/05/05 00:26:22;;;;;;;13.47;6.43;;;;;;;18.65;42.50;102093.50;5030381;28;20049;-71
2022/05/05 00:28:47;;;;;;;13.97;5.93;;;;;;;18.93;41.78;102082.25;5014678;28;20071;-71
2022/05/05 00:31:13;;;;;;;15.07;6.50;;;;;;;18.97;41.62;102086.59;5031772;28;20021;-70
2022/05/05 00:33:39;;;;;;;13.87;6.30;;;;;;;19.09;41.41;102086.25;5029267;28;20029;-70
2022/05/05 00:36:04;;;;;;;13.00;5.93;;;;;;;18.94;41.86;102081.38;5032963;28;20036;-71
2022/05/05 00:38:30;;;;;;;11.57;5.67;;;;;;;19.27;40.83;102086.69;5027999;28;20041;-71
2022/05/05 00:40:55;;;;;;;13.03;5.83;;;;;;;18.99;41.50;102087.44;5029454;28;20115;-71
2022/05/05 00:43:20;;;;;;;15.07;6.00;;;;;;;18.93;41.81;102096.41;5041497;28;20120;-71
2022/05/05 00:45:46;;;;;;;15.00;6.37;;;;;;;18.78;42.03;102087.03;5029162;28;20037;-70
2022/05/05 00:48:12;;;;;;;18.90;6.23;;;;;;;18.95;41.51;102085.75;5032631;28;20029;-70
2022/05/05 00:50:38;;;;;;;12.57;6.40;;;;;;;19.12;41.46;102088.84;4997606;28;20033;-71
2022/05/05 00:53:04;;;;;;;15.70;6.03;;;;;;;18.67;42.11;102089.06;5028085;28;20018;-71
2022/05/05 00:55:37;;;;;;;13.30;6.57;;;;;;;19.01;41.73;102088.25;5030332;28;20029;-71
2022/05/05 00:58:03;;;;;;;11.98;5.35;;;;;;;18.91;41.72;102094.69;5030366;28;20025;-71
2022/05/05 01:00:31;;;;;;;12.13;5.80;;;;;;;18.88;41.77;102092.13;5012503;28;20393;-71
2022/05/05 01:02:59;;;;;;;16.50;6.13;;;;;;;18.82;41.98;102090.44;5027944;28;20036;-70
2022/05/05 01:05:26;;;;;;;16.17;7.03;;;;;;;18.72;41.88;102089.81;5015519;28;20018;-71
2022/05/05 01:07:52;;;;;;;17.20;6.63;;;;;;;18.81;41.86;102089.59;5030441;28;20041;-71
2022/05/05 01:10:17;;;;;;;12.07;6.07;;;;;;;18.72;41.29;102087.16;5030807;28;20021;-71
2022/05/05 01:12:43;;;;;;;12.53;6.60;;;;;;;18.65;42.04;102088.22;5031469;28;20108;-70
2022/05/05 01:15:09;;;;;;;16.03;6.70;;;;;;;18.65;42.04;102088.22;5011830;28;20025;-71
2022/05/05 01:17:34;;;;;;;13.13;6.37;;;;;;;18.60;42.00;102085.69;5014036;28;20440;-71
2022/05/05 01:20:13;;;;;;;14.13;6.73;;;;;;;18.33;43.12;102087.19;5031442;28;20056;-71
2022/05/05 01:22:39;;;;;;;15.20;6.33;;;;;;;18.34;42.49;102081.00;5029861;28;20026;-71
2022/05/05 01:30:32;;;;;;;11.87;5.43;;;;;;;18.47;42.88;102085.09;5027270;28;20576;-71
2022/05/05 01:32:58;;;;;;;15.20;6.40;;;;;;;18.35;43.07;102085.38;5031640;28;20132;-71
2022/05/05 01:35:23;;;;;;;13.10;6.67;;;;;;;18.17;44.14;102075.22;5028892;28;20025;-70
2022/05/05 01:37:48;;;;;;;15.67;6.73;;;;;;;18.34;43.35;102077.47;5031144;28;20376;-71
2022/05/05 01:40:14;;;;;;;14.13;6.63;;;;;;;18.58;43.12;102070.75;5048772;28;20068;-72
2022/05/05 01:42:40;;;;;;;12.17;6.33;;;;;;;18.68;42.72;102080.19;5027759;28;20393;-71
2022/05/05 01:45:06;;;;;;;13.40;6.80;;;;;;;17.85;45.11;102074.97;5013958;28;20545;-70
2022/05/05 01:47:31;;;;;;;16.43;6.80;;;;;;;18.53;43.71;102077.91;5031296;28;20496;-71
2022/05/05 01:49:58;;;;;;;18.13;6.97;;;;;;;18.55;43.46;102082.28;5029431;28;20041;-71
2022/05/05 01:52:24;;;;;;;14.10;7.17;;;;;;;18.18;44.53;102076.97;5030278;28;20078;-70
2022/05/05 01:54:49;;;;;;;15.80;7.13;;;;;;;17.92;45.17;102075.75;5028687;28;20669;-71
2022/05/05 01:57:14;;;;;;;12.57;6.50;;;;;;;18.28;44.06;102084.63;5026239;28;20037;-71
2022/05/05 01:59:40;;;;;;;15.00;6.50;;;;;;;18.33;43.73;102073.06;5028951;28;20033;-70
2022/05/05 02:02:05;;;;;;;13.57;6.17;;;;;;;18.50;43.25;102083.28;5028665;28;20030;-70
2022/05/05 02:04:30;;;;;;;11.37;5.83;;;;;;;18.17;44.34;102078.72;5028686;28;20159;-70
2022/05/05 02:06:56;;;;;;;17.27;8.13;;;;;;;18.45;43.36;102076.34;5028992;28;20520;-71
2022/05/05 02:09:21;;;;;;;14.87;7.80;;;;;;;18.26;43.40;102086.47;5040857;28;20478;-70
2022/05/05 02:11:47;;;;;;;12.23;6.53;;;;;;;18.41;43.14;102084.34;5026037;28;20104;-71
2022/05/05 02:14:12;;;;;;;13.43;6.53;;;;;;;18.19;43.60;102082.22;5030331;28;20405;-70
2022/05/05 02:16:37;;;;;;;14.37;7.10;;;;;;;18.21;43.43;102082.19;5030471;28;20022;-70
2022/05/05 02:19:03;;;;;;;13.27;6.60;;;;;;;18.24;43.26;102079.47;5029611;28;20466;-71
2022/05/05 02:21:28;;;;;;;11.77;5.80;;;;;;;18.09;43.22;102083.31;5009041;28;20030;-71
2022/05/05 02:23:53;;;;;;;12.17;6.40;;;;;;;17.88;43.95;102084.63;5009602;28;20445;-71
2022/05/05 02:26:19;;;;;;;13.30;6.00;;;;;;;18.18;42.99;102087.56;5028928;28;20453;-70
2022/05/05 02:28:44;;;;;;;14.40;6.13;;;;;;;18.16;42.97;102078.75;5016877;28;20034;-70
2022/05/05 02:31:09;;;;;;;15.03;6.63;;;;;;;18.22;42.69;102089.22;5022651;28;20021;-71
2022/05/05 02:33:35;;;;;;;15.47;6.97;;;;;;;18.22;42.85;102091.88;5029021;28;20112;-71
2022/05/05 02:38:44;;;;;;;12.43;5.97;;;;;;;18.20;43.10;102088.38;5028839;28;20743;-71
2022/05/05 02:41:09;;;;;;;16.57;7.23;;;;;;;17.77;44.53;102096.28;5010066;28;20042;-71
2022/05/05 02:43:35;;;;;;;14.53;6.67;;;;;;;17.72;43.92;102095.53;5020602;28;20032;-71
2022/05/05 02:46:00;;;;;;;11.97;6.20;;;;;;;17.80;44.34;102088.31;5028427;28;20025;-71
2022/05/05 02:48:25;;;;;;;16.03;7.23;;;;;;;17.70;44.28;102096.44;5027918;28;20036;-71
2022/05/05 02:50:51;;;;;;;12.50;7.03;;;;;;;17.89;43.55;102091.66;5027801;28;20037;-71
2022/05/05 02:56:00;;;;;;;15.30;7.93;;;;;;;17.58;44.78;102094.91;5030763;28;20040;-71
2022/05/05 02:58:28;;;;;;;18.57;7.10;;;;;;;17.86;43.56;102092.59;5026330;28;20026;-71
2022/05/05 03:00:53;;;;;;;14.30;6.97;;;;;;;17.83;43.61;102086.47;5028271;28;20030;-70
2022/05/05 03:03:18;;;;;;;14.93;7.10;;;;;;;17.84;43.24;102086.44;5018156;28;20022;-70
2022/05/05 03:05:44;;;;;;;14.13;6.13;;;;;;;17.84;43.43;102089.09;5030563;28;20033;-71
2022/05/05 03:08:10;;;;;;;17.83;7.63;;;;;;;17.69;43.79;102084.97;5013466;28;20022;-71
2022/05/05 03:10:35;;;;;;;15.37;7.27;;;;;;;17.88;43.58;102093.41;5026289;28;20384;-70
2022/05/05 03:13:00;;;;;;;16.40;6.80;;;;;;;17.64;44.18;102086.88;5033093;28;20338;-71
2022/05/05 03:15:26;;;;;;;15.77;7.97;;;;;;;17.90;43.07;102093.38;5032393;28;20017;-70
2022/05/05 03:17:51;;;;;;;15.90;6.23;;;;;;;18.03;42.98;102091.41;5032326;28;20496;-71
2022/05/05 03:20:16;;;;;;;12.63;6.43;;;;;;;17.84;43.56;102088.22;5031578;28;20063;-70
2022/05/05 03:22:42;;;;;;;14.73;6.37;;;;;;;17.52;44.49;102090.59;5030327;28;20378;-71
2022/05/05 03:25:07;;;;;;;12.17;5.77;;;;;;;17.86;43.87;102086.41;5013173;28;20113;-71
2022/05/05 03:27:35;;;;;;;13.13;6.77;;;;;;;17.64;44.51;102097.44;5021190;28;20025;-71
2022/05/05 03:30:01;;;;;;;16.93;7.00;;;;;;;17.42;45.23;102096.94;5033818;28;20483;-71
2022/05/05 03:32:28;;;;;;;13.87;6.00;;;;;;;17.76;44.26;102091.91;5032199;28;20029;-71
2022/05/05 03:34:54;;;;;;;14.77;7.70;;;;;;;17.88;44.51;102100.50;5030380;28;20044;-70
2022/05/05 03:37:19;;;;;;;14.67;6.93;;;;;;;17.89;44.21;102094.31;5015539;28;20520;-70
2022/05/05 03:39:45;;;;;;;14.97;6.60;;;;;;;18.01;43.96;102102.03;5014628;28;20093;-71
2022/05/05 03:42:11;;;;;;;16.83;7.50;;;;;;;18.01;44.06;102102.03;5030282;28;20048;-71
2022/05/05 03:44:36;;;;;;;15.77;7.13;;;;;;;17.83;44.69;102097.91;5032445;28;20060;-71
2022/05/05 03:47:02;;;;;;;15.27;6.90;;;;;;;18.03;44.25;102097.53;5031020;28;20028;-71
2022/05/05 03:49:27;;;;;;;14.23;6.70;;;;;;;18.25;43.73;102100.59;5033301;28;20032;-71
2022/05/05 03:51:55;;;;;;;14.77;7.03;;;;;;;18.46;43.19;102096.63;5032143;28;20541;-71
2022/05/05 03:54:21;;;;;;;16.40;6.03;;;;;;;18.35;43.62;102093.31;5032212;28;20025;-72
2022/05/05 03:56:46;;;;;;;15.03;7.40;;;;;;;18.47;43.43;102100.97;5031372;28;20086;-71
2022/05/05 03:59:11;;;;;;;16.40;7.07;;;;;;;18.37;43.62;102096.81;5031664;28;20572;-71
2022/05/05 04:01:37;;;;;;;12.97;6.47;;;;;;;18.20;43.62;102097.16;5029564;28;20061;-71
2022/05/05 04:04:02;;;;;;;16.03;7.47;;;;;;;18.12;44.32;102097.34;5030269;28;20060;-71
2022/05/05 04:06:27;;;;;;;17.20;7.70;;;;;;;18.39;43.78;102104.72;5033628;28;20032;-71
2022/05/05 04:08:53;;;;;;;14.87;7.47;;;;;;;18.44;43.77;102101.06;5031510;28;20064;-71
2022/05/05 04:11:18;;;;;;;15.73;7.40;;;;;;;18.37;44.39;102104.75;5031677;28;20466;-71
2022/05/05 04:13:43;;;;;;;19.83;7.97;;;;;;;18.57;43.92;102106.06;5030306;28;20553;-71
2022/05/05 04:16:10;;;;;;;15.10;7.07;;;;;;;18.88;43.29;102106.22;5031979;28;20068;-70
2022/05/05 04:18:35;;;;;;;14.47;7.23;;;;;;;18.69;43.71;102111.06;5029177;28;20470;-70
2022/05/05 04:21:01;;;;;;;17.20;7.87;;;;;;;18.70;43.50;102111.94;5031829;28;20094;-71
2022/05/05 04:23:26;;;;;;;19.43;7.60;;;;;;;18.95;42.46;102112.25;5031807;28;20116;-70
2022/05/05 04:25:52;;;;;;;16.43;7.63;;;;;;;19.06;42.59;102115.50;5026484;28;20498;-71
2022/05/05 04:28:17;;;;;;;14.07;6.50;;;;;;;18.76;42.88;102123.25;5017253;28;20030;-71
2022/05/05 04:30:43;;;;;;;19.10;7.67;;;;;;;18.89;43.03;102117.69;5011718;28;20033;-70
2022/05/05 04:33:08;;;;;;;17.07;7.87;;;;;;;18.97;43.50;102113.97;5032118;28;20024;-70
2022/05/05 04:35:35;;;;;;;14.60;6.77;;;;;;;19.31;42.26;102110.41;5029682;28;20119;-70
2022/05/05 04:38:01;;;;;;;16.27;8.27;;;;;;;19.04;42.52;102121.75;5029895;28;20555;-70
2022/05/05 04:40:26;;;;;;;16.50;6.97;;;;;;;18.71;43.51;102119.88;5029210;28;20054;-71
2022/05/05 04:42:51;;;;;;;16.53;7.20;;;;;;;19.43;42.19;102117.19;5031391;28;20040;-71
2022/05/05 04:45:17;;;;;;;16.17;7.03;;;;;;;19.35;42.56;102116.53;5030312;28;20029;-70
2022/05/05 04:47:43;;;;;;;14.80;6.83;;;;;;;19.05;42.32;102124.34;5012106;28;20041;-70
2022/05/05 04:50:09;;;;;;;14.87;6.77;;;;;;;19.86;41.43;102124.91;5031435;28;20037;-70
2022/05/05 04:52:34;;;;;;;13.87;6.97;;;;;;;19.97;41.22;102122.81;5030012;28;20033;-70
2022/05/05 04:55:00;;;;;;;15.83;6.20;;;;;;;19.33;42.04;102123.66;5030324;28;20029;-70
2022/05/05 04:57:25;;;;;;;15.07;6.87;;;;;;;19.46;42.32;102119.75;5028913;28;21124;-70
2022/05/05 04:59:51;;;;;;;18.03;6.60;;;;;;;18.96;42.99;102125.47;5025245;28;20041;-70
2022/05/05 05:02:16;;;;;;;15.10;7.90;;;;;;;19.34;42.23;102135.97;5047562;28;20033;-70
2022/05/05 05:04:42;;;;;;;17.40;7.03;;;;;;;20.06;41.56;102138.47;5030307;28;20075;-70
2022/05/05 05:07:07;;;;;;;16.33;6.73;;;;;;;20.07;40.85;102132.25;5028044;28;20060;-70
2022/05/05 05:09:34;;;;;;;14.17;6.80;;;;;;;20.25;40.72;102146.75;5027340;28;20029;-70
2022/05/05 05:12:00;;;;;;;16.23;7.03;;;;;;;19.97;41.35;102146.69;5029846;28;20029;-70
2022/05/05 05:14:26;;;;;;;17.60;7.70;;;;;;;20.50;40.74;102138.91;5031509;28;20055;-70
2022/05/05 05:16:51;;;;;;;15.93;7.77;;;;;;;20.17;40.87;102144.31;5014152;28;20067;-70
2022/05/05 05:19:17;;;;;;;17.23;7.73;;;;;;;20.36;40.93;102149.09;5029291;28;20470;-70
2022/05/05 05:21:42;;;;;;;14.73;7.10;;;;;;;20.62;40.44;102144.72;5029594;28;20032;-70
2022/05/05 05:24:08;;;;;;;15.63;6.33;;;;;;;20.56;40.22;102153.78;5029015;28;20033;-71
2022/05/05 05:26:33;;;;;;;20.00;7.60;;;;;;;20.40;40.98;102152.50;5028751;28;20021;-71
2022/05/05 05:28:58;;;;;;;17.23;7.80;;;;;;;20.20;41.48;102158.44;5027570;28;20103;-71
2022/05/05 05:31:24;;;;;;;14.77;7.40;;;;;;;20.43;41.14;102149.75;5030655;28;20028;-70
2022/05/05 05:33:50;;;;;;;13.97;6.97;;;;;;;20.60;40.38;102158.06;5027346;28;20118;-70
2022/05/05 05:36:15;;;;;;;17.43;7.80;;;;;;;20.84;40.23;102164.44;5029036;28;20033;-70
2022/05/05 05:38:41;;;;;;;20.20;7.67;;;;;;;20.61;40.75;102165.13;5027581;28;20033;-70
2022/05/05 05:41:08;;;;;;;17.13;8.33;;;;;;;21.01;39.38;102163.03;5030868;28;20049;-70
2022/05/05 05:43:33;;;;;;;25.93;7.80;;;;;;;20.48;40.61;102169.97;5029444;28;20084;-70
2022/05/05 05:45:59;;;;;;;20.27;7.57;;;;;;;20.82;40.38;102166.25;5010706;28;20018;-70
2022/05/05 05:48:25;;;;;;;16.60;7.97;;;;;;;21.42;39.04;102163.41;5009928;28;20475;-70
2022/05/05 05:50:50;;;;;;;18.37;7.10;;;;;;;21.50;39.06;102168.44;4990685;28;20388;-71
2022/05/05 05:53:16;;;;;;;17.80;7.63;;;;;;;21.52;38.90;102164.84;5029029;28;20511;-70
2022/05/05 05:55:41;;;;;;;18.57;8.17;;;;;;;21.74;38.69;102172.06;5029825;28;20028;-70
2022/05/05 05:58:06;;;;;;;17.53;7.77;;;;;;;21.81;38.71;102181.56;5030785;28;20097;-70
2022/05/05 06:00:32;;;;;;;19.83;7.60;;;;;;;21.51;39.01;102183.47;5030871;28;20425;-70
2022/05/05 06:05:42;;;;;;;19.33;8.15;;;;;;;21.61;38.80;102186.72;5029468;28;20106;-71
2022/05/05 06:08:08;;;;;;;17.63;7.45;;;;;;;21.73;39.00;102183.63;5028940;28;20481;-71
2022/05/05 06:10:34;;;;;;;17.33;8.13;;;;;;;21.79;38.14;102183.41;5029050;28;20021;-70
2022/05/05 06:12:59;;;;;;;18.45;7.20;;;;;;;21.99;38.00;102184.47;5030907;28;20029;-70
2022/05/05 06:15:25;;;;;;;12.70;7.38;;;;;;;22.06;38.24;102193.13;5026939;28;20018;-71
2022/05/05 06:17:51;;;;;;;20.50;9.05;;;;;;;22.22;38.15;102206.72;5027877;28;20025;-70
2022/05/05 06:20:17;;;;;;;19.67;9.10;;;;;;;21.61;39.40;102208.00;5026585;28;20080;-70
2022/05/05 06:22:42;;;;;;;18.23;7.97;;;;;;;22.10;38.06;102208.91;5028544;28;20428;-71
2022/05/05 06:25:11;;;;;;;20.80;8.15;;;;;;;22.49;37.49;102216.38;5029750;28;20025;-71
2022/05/05 06:27:37;;;;;;;16.17;7.90;;;;;;;22.32;38.12;102213.44;5019855;28;20017;-70
2022/05/05 06:30:05;;;;;;;20.70;9.02;;;;;;;21.83;38.65;102206.34;5037756;28;20054;-71
2022/05/05 06:32:30;;;;;;;16.88;8.10;;;;;;;22.22;38.61;102212.06;5026983;28;20025;-71
2022/05/05 06:34:56;;;;;;;20.80;8.57;;;;;;;22.73;37.05;102208.34;5022086;28;20028;-71
2022/05/05 06:37:22;;;;;;;18.25;8.50;;;;;;;22.06;38.29;102217.94;5028710;28;20033;-71
2022/05/05 06:39:49;;;;;;;19.23;7.90;;;;;;;21.93;38.84;102214.00;5030184;28;20025;-70
2022/05/05 06:42:14;;;;;;;17.48;7.63;;;;;;;22.43;38.34;102226.38;5029364;28;20072;-71
2022/05/05 06:44:40;;;;;;;20.08;8.10;;;;;;;22.51;37.80;102225.16;5028954;28;20453;-71
2022/05/05 06:47:05;;;;;;;21.70;8.82;;;;;;;22.74;37.90;102225.19;5029293;28;20041;-71
2022/05/05 06:49:31;;;;;;;21.38;8.77;;;;;;;22.88;37.57;102229.03;5028851;28;20053;-71
2022/05/05 06:51:57;;;;;;;20.88;8.15;;;;;;;22.92;37.57;102218.28;5028261;28;20025;-71
2022/05/05 06:54:22;;;;;;;20.05;8.70;;;;;;;22.99;37.22;102223.28;5030399;28;20017;-71
2022/05/05 06:56:48;;;;;;;19.98;9.07;;;;;;;21.72;40.01;102234.25;5028861;28;20021;-71
2022/05/05 06:59:14;;;;;;;20.15;9.05;;;;;;;22.69;38.08;102223.56;5028778;28;20025;-70
2022/05/05 07:02:02;;;;;;;20.83;9.68;;;;;;;22.60;38.39;102223.94;5028132;28;20112;-71
2022/05/05 07:07:14;;;;;;;21.23;9.55;;;;;;;23.28;37.12;102226.56;5030357;28;20040;-70
2022/05/05 07:12:32;;;;;;;19.25;9.32;;;;;;;23.11;37.70;102235.25;5030409;28;20036;-71
2022/05/05 07:14:58;;;;;;;19.75;10.05;;;;;;;23.60;36.93;102242.16;5030600;28;20040;-70
2022/05/05 07:17:25;;;;;;;21.98;9.23;;;;;;;23.30;37.57;102239.84;5029079;28;20032;-71
2022/05/05 07:19:51;;;;;;;24.08;9.85;;;;;;;23.49;36.77;102235.50;5029538;28;20060;-71
2022/05/05 07:22:17;;;;;;;25.88;11.75;;;;;;;22.36;38.48;102247.91;5030638;28;20060;-71
2022/05/05 07:24:43;;;;;;;22.10;10.48;;;;;;;23.64;36.71;102238.44;5029993;28;20049;-71
2022/05/05 07:27:10;;;;;;;23.17;9.85;;;;;;;23.78;37.08;102244.03;5029854;28;20021;-71
2022/05/05 07:29:41;;;;;;;22.42;9.30;;;;;;;23.19;37.08;102249.19;5028922;28;20021;-71
2022/05/05 07:32:07;;;;;;;24.65;10.38;;;;;;;24.01;36.22;102252.88;5029332;28;20440;-71
2022/05/05 07:34:34;;;;;;;22.50;10.60;;;;;;;24.37;35.55;102249.44;5028091;28;20025;-70
2022/05/05 07:37:01;;;;;;;20.55;9.65;;;;;;;23.77;36.52;102247.66;5028881;28;20108;-71
2022/05/05 07:39:27;;;;;;;25.38;11.45;;;;;;;23.65;36.90;102245.50;5028791;28;20029;-71
2022/05/05 07:41:52;;;;;;;18.77;9.73;;;;;;;24.41;35.27;102245.69;5027872;28;20051;-71
2022/05/05 07:44:17;;;;;;;20.92;9.77;;;;;;;24.10;35.95;102247.13;5028998;28;20128;-71
2022/05/05 07:46:43;;;;;;;23.23;9.68;;;;;;;24.59;35.87;102248.47;5028454;28;20473;-71
2022/05/05 07:49:09;;;;;;;19.83;9.68;;;;;;;24.37;35.83;102254.78;5031909;28;20366;-71
2022/05/05 07:51:35;;;;;;;20.55;10.13;;;;;;;24.05;36.00;102254.47;5032081;28;20017;-71
2022/05/05 07:56:45;;;;;;;24.25;11.77;;;;;;;24.42;35.80;102255.47;5032815;28;20076;-71
2022/05/05 07:59:11;;;;;;;23.27;11.68;;;;;;;25.71;33.98;102260.88;5032660;28;20057;-71
2022/05/05 08:01:37;;;;;;;25.13;12.07;;;;;;;25.29;34.53;102264.75;5033465;28;20036;-71
2022/05/05 08:04:02;;;;;;;27.25;12.13;;;;;;;25.48;34.63;102270.91;5032422;28;20025;-71
2022/05/05 08:06:28;;;;;;;25.77;12.45;;;;;;;25.25;34.46;102269.34;5032360;28;20033;-71
2022/05/05 08:08:53;;;;;;;27.85;12.73;;;;;;;25.41;34.50;102274.84;5030905;28;20031;-70
2022/05/05 08:11:18;;;;;;;31.77;12.40;;;;;;;24.77;35.64;102274.38;5032224;28;20143;-70
2022/05/05 08:13:44;;;;;;;33.72;13.65;;;;;;;25.49;34.49;102274.47;5031264;28;20017;-70
2022/05/05 08:16:10;;;;;;;27.13;13.57;;;;;;;25.89;33.91;102269.75;5032786;28;20075;-72
2022/05/05 08:18:38;;;;;;;31.70;14.00;;;;;;;24.59;36.33;102288.56;5015351;28;20396;-71
2022/05/05 08:21:05;;;;;;;34.10;15.27;;;;;;;25.14;35.20;102288.66;5031883;28;20025;-70
2022/05/05 08:23:31;;;;;;;33.78;16.67;;;;;;;25.51;35.06;102286.84;5031099;28;20117;-70
2022/05/05 08:28:58;;;;;;;33.78;14.75;;;;;;;25.95;33.56;102284.63;5010758;28;20037;-70
2022/05/05 08:31:23;;;;;;;34.38;15.00;;;;;;;26.35;33.31;102285.19;5022903;28;20049;-71
2022/05/05 08:33:49;;;;;;;37.72;17.50;;;;;;;25.72;34.32;102289.38;5031371;28;20760;-71
2022/05/05 08:36:14;;;;;;;34.42;17.17;;;;;;;26.22;33.44;102285.88;5031950;28;20022;-70
2022/05/05 08:38:39;;;;;;;36.47;17.40;;;;;;;26.47;33.36;102292.56;5031858;28;20542;-70
2022/05/05 08:41:10;;;;;;;42.60;19.80;;;;;;;26.97;32.17;102292.56;5031449;28;20045;-71
2022/05/05 08:43:35;;;;;;;40.42;19.55;;;;;;;26.07;33.47;102300.09;5032711;28;20446;-71
2022/05/05 08:46:03;;;;;;;42.75;20.77;;;;;;;26.61;32.53;102288.28;5030562;28;20112;-70
2022/05/05 08:48:31;;;;;;;43.97;21.30;;;;;;;26.08;33.32;102297.31;5031869;28;20025;-71
2022/05/05 08:51:00;;;;;;;39.13;19.08;;;;;;;26.94;31.87;102300.78;5031973;28;20022;-71
2022/05/05 08:53:32;;;;;;;43.58;21.23;;;;;;;27.79;30.52;102299.44;5031774;28;20079;-71
2022/05/05 08:55:58;;;;;;;38.15;19.23;;;;;;;27.82;30.92;102304.66;5031165;28;20063;-70
2022/05/05 08:58:23;;;;;;;44.95;20.90;;;;;;;27.84;30.70;102305.41;5030391;28;20021;-70
2022/05/05 09:00:53;;;;;;;40.25;20.95;;;;;;;27.34;30.60;102306.53;5030224;28;20307;-71
2022/05/05 09:03:19;;;;;;;45.83;20.23;;;;;;;26.32;32.39;102310.34;5031535;28;20393;-70
2022/05/05 09:05:44;;;;;;;42.55;20.88;;;;;;;26.48;32.49;102301.50;5031431;28;20358;-71
2022/05/05 09:08:25;;;;;;;42.67;21.52;;;;;;;27.75;30.29;102314.00;5032561;28;20044;-70
2022/05/05 09:10:55;;;;;;;41.88;20.33;;;;;;;27.54;31.21;102317.00;5030791;28;20025;-71
2022/05/05 09:13:22;;;;;;;41.13;20.15;;;;;;;28.78;29.17;102309.50;5030600;28;20484;-71
2022/05/05 09:15:47;;;;;;;44.13;21.25;;;;;;;27.74;30.72;102320.38;5031726;28;20072;-71
2022/05/05 09:18:25;;;;;;;42.47;20.20;;;;;;;28.20;29.45;102314.03;5032495;28;20028;-71
2022/05/05 09:20:51;;;;;;;45.05;22.02;;;;;;;28.42;29.90;102313.56;5029706;28;20017;-71
2022/05/05 09:23:30;;;;;;;38.22;20.20;;;;;;;27.97;29.58;102326.16;5030858;28;20397;-71
2022/05/05 09:25:56;;;;;;;41.60;20.15;;;;;;;28.00;30.37;102312.56;5030745;28;20051;-70
2022/05/05 09:28:27;;;;;;;37.92;19.42;;;;;;;28.49;29.36;102319.41;5030010;28;20033;-70
2022/05/05 09:30:53;;;;;;;41.78;20.65;;;;;;;28.35;29.24;102322.97;5030407;28;20108;-71
2022/05/05 09:33:48;;;;;;;43.28;20.33;;;;;;;29.21;28.64;102325.56;5013697;28;20116;-71
2022/05/05 09:36:16;;;;;;;38.25;18.88;;;;;;;28.43;29.03;102326.06;5026217;28;20037;-71
2022/05/05 09:38:51;;;;;;;40.92;19.88;;;;;;;28.35;29.61;102328.34;5030465;28;20043;-71
2022/05/05 09:41:18;;;;;;;41.08;19.75;;;;;;;29.40;28.28;102324.34;5029673;28;20053;-71
2022/05/05 09:43:47;;;;;;;41.05;20.67;;;;;;;27.61;30.26;102332.78;5030135;28;20096;-71
2022/05/05 09:46:21;;;;;;;43.13;21.65;;;;;;;26.92;31.38;102331.25;5031825;28;20032;-70
2022/05/05 09:49:03;;;;;;;46.60;21.00;;;;;;;26.66;31.63;102339.84;5030511;28;20037;-71
2022/05/05 09:51:43;;;;;;;39.60;20.17;;;;;;;28.15;28.87;102335.84;5030564;28;20032;-71
2022/05/05 09:59:51;;;;;;;40.72;20.60;;;;;;;29.41;28.13;102344.94;5031326;28;20045;-71
2022/05/05 10:05:18;;;;;;;36.55;19.17;;;;;;;30.55;27.08;102347.06;5031818;28;20031;-71
2022/05/05 10:07:46;;;;;;;40.92;20.30;;;;;;;29.19;27.77;102350.84;5030897;28;20052;-71
2022/05/05 10:10:18;;;;;;;37.97;19.75;;;;;;;29.32;27.96;102353.63;5029270;28;20075;-71
2022/05/05 10:12:45;;;;;;;41.80;21.37;;;;;;;29.39;27.92;102353.13;5029898;28;20063;-71
2022/05/05 10:15:12;;;;;;;38.70;19.23;;;;;;;30.03;27.42;102344.34;5030267;28;20639;-71
2022/05/05 10:17:41;;;;;;;36.13;19.85;;;;;;;30.06;27.63;102343.28;5030338;28;20109;-71
2022/05/05 10:20:10;;;;;;;38.97;19.67;;;;;;;29.88;27.08;102342.72;5029912;28;20025;-71
2022/05/05 10:22:45;;;;;;;31.50;17.90;;;;;;;30.35;26.27;102348.44;5028653;28;20488;-71
2022/05/05 10:25:21;;;;;;;37.45;18.90;;;;;;;30.57;26.59;102339.72;5029961;28;20069;-71
2022/05/05 10:27:46;;;;;;;39.08;19.67;;;;;;;28.87;28.92;102351.13;5029251;28;20132;-71
2022/05/05 10:30:31;;;;;;;35.45;18.25;;;;;;;30.76;26.62;102356.31;5029077;28;20108;-71
2022/05/05 10:32:57;;;;;;;39.33;19.90;;;;;;;30.87;26.74;102346.56;5029544;28;20481;-71
2022/05/05 10:35:23;;;;;;;39.17;18.92;;;;;;;29.75;26.79;102358.84;5029840;28;20047;-71
2022/05/05 10:37:48;;;;;;;39.10;19.77;;;;;;;29.59;27.63;102354.50;5028210;28;20090;-71
2022/05/05 10:40:14;;;;;;;36.22;19.42;;;;;;;30.47;27.08;102344.91;5030764;28;20041;-71
2022/05/05 10:42:45;;;;;;;34.28;18.90;;;;;;;29.39;27.66;102352.28;5029199;28;20082;-70
2022/05/05 10:45:32;;;;;;;36.00;17.33;;;;;;;30.59;25.84;102348.59;5030303;28;20029;-71
2022/05/05 10:48:04;;;;;;;36.92;18.92;;;;;;;30.11;26.83;102355.44;5029294;28;20556;-71
2022/05/05 10:50:43;;;;;;;;;;;;;;;31.49;24.56;102348.31;5029227;28;20026;-71
2022/05/05 10:53:24;;;;;;;33.85;17.98;;;;;;;31.76;24.68;102347.19;5029559;28;19917;-71
2022/05/05 10:55:50;;;;;;;39.40;20.17;;;;;;;29.77;27.13;102359.59;5012574;28;20055;-71
2022/05/05 10:58:53;;;;;;;34.97;19.20;;;;;;;30.39;27.16;102352.66;5030195;28;20480;-71
2022/05/05 11:01:18;;;;;;;39.30;20.42;;;;;;;29.22;28.29;102366.78;5029324;28;20508;-71
2022/05/05 11:04:20;;;;;;;39.10;21.25;;;;;;;30.60;26.52;102361.97;5028828;28;20025;-71
2022/05/05 11:06:49;;;;;;;40.42;20.63;;;;;;;31.13;25.97;102358.19;5010425;28;20026;-71
2022/05/05 11:09:37;;;;;;;32.63;18.85;;;;;;;31.28;25.57;102354.34;5025628;28;20038;-72
2022/05/05 11:12:23;;;;;;;35.33;19.50;;;;;;;32.82;24.60;102359.66;5028398;28;20029;-72
2022/05/05 11:23:41;;;;;;;38.38;19.00;;;;;;;31.25;25.07;102357.25;5033938;28;20070;-71
2022/05/05 11:26:07;;;;;;;36.50;18.60;;;;;;;32.61;24.51;102352.25;5033781;28;20040;-71
2022/05/05 11:28:32;;;;;;;36.53;20.27;;;;;;;31.52;25.19;102356.19;5033056;28;20037;-72
2022/05/05 11:30:57;;;;;;;38.58;20.80;;;;;;;30.69;26.08;102360.41;5034317;28;20269;-71
2022/05/05 11:33:23;;;;;;;36.67;18.90;;;;;;;31.81;24.71;102358.53;5032441;28;20025;-72
2022/05/05 11:36:01;;;;;;;38.92;19.67;;;;;;;30.35;26.18;102356.53;5032490;28;20028;-72
2022/05/05 11:38:28;;;;;;;36.63;20.40;;;;;;;31.38;25.12;102361.75;5034335;28;20108;-71
2022/05/05 11:41:04;;;;;;;32.40;19.17;;;;;;;31.37;26.29;102365.44;5031550;28;20030;-71
2022/05/05 11:46:15;;;;;;;38.88;20.27;;;;;;;30.92;25.87;102356.06;5034645;28;20095;-72
2022/05/05 11:48:42;;;;;;;32.35;18.98;;;;;;;31.83;25.05;102367.38;5031717;28;20025;-72
2022/05/05 11:51:08;;;;;;;34.35;19.17;;;;;;;32.19;25.20;102364.66;5032801;28;20029;-71
2022/05/05 11:53:35;;;;;;;36.35;19.85;;;;;;;31.33;25.15;102363.97;5033771;28;20029;-71
2022/05/05 11:56:01;;;;;;;35.47;20.20;;;;;;;30.36;26.43;102358.28;5031680;28;20025;-72
2022/05/05 12:04:02;;;;;;;36.70;19.15;;;;;;;30.72;25.42;102362.91;5033952;28;20076;-72
2022/05/05 12:06:28;;;;;;;32.97;18.75;;;;;;;31.57;25.18;102364.81;5033658;28;20040;-72
2022/05/05 12:08:56;;;;;;;34.13;18.63;;;;;;;32.70;23.82;102360.66;5031164;28;20083;-72
2022/05/05 12:11:21;;;;;;;33.22;19.27;;;;;;;31.16;24.61;102367.91;5032484;28;20227;-72